Time;durP1;ratioP1;P1;durP2;ratioP2;P2;SDS_P1;SDS_P2;PMS_P1;PMS_P2;Temp;Humidity;BMP_temperature;BMP_pressure;BME280_temperature;BME280_humidity;BME280_pressure;Samples;Min_cycle;Max_cycle;Signal;HPM_P1;HPM_P2
2023/06/02 00:02:29;;;;;;;4.37;3.10;;;14.20;99.90;;;;;;5038073;28;20266;-88
2023/06/02 00:04:57;;;;;;;6.20;3.17;;;;;;;;;;5048459;28;20468;-87
2023/06/02 00:07:25;;;;;;;5.63;3.47;;;14.10;99.90;;;;;;5038742;28;20889;-88
2023/06/02 00:09:51;;;;;;;4.35;2.95;;;14.00;99.90;;;;;;5050938;28;20471;-89
2023/06/02 00:12:16;;;;;;;5.70;2.93;;;14.00;99.90;;;;;;5051470;28;20810;-88
2023/06/02 00:14:42;;;;;;;8.17;3.57;;;13.90;99.90;;;;;;5032161;28;20514;-88
2023/06/02 00:17:08;;;;;;;3.43;2.30;;;13.90;99.90;;;;;;5052786;28;20186;-88
2023/06/02 00:19:35;;;;;;;3.73;2.77;;;13.90;99.90;;;;;;5048927;28;20201;-88
2023/06/02 00:22:02;;;;;;;5.80;3.33;;;13.90;99.90;;;;;;5045866;28;20493;-88
2023/06/02 00:24:27;;;;;;;4.07;2.70;;;13.90;99.90;;;;;;5031829;28;20451;-88
2023/06/02 00:26:53;;;;;;;4.17;2.53;;;13.90;99.90;;;;;;5033712;28;20216;-89
2023/06/02 00:29:18;;;;;;;5.60;2.67;;;13.80;99.90;;;;;;5033072;28;20311;-88
2023/06/02 00:31:44;;;;;;;10.40;3.53;;;13.80;99.90;;;;;;5050367;28;20288;-88
2023/06/02 00:34:10;;;;;;;6.03;3.33;;;13.70;99.90;;;;;;5051357;28;20200;-88
2023/06/02 00:36:35;;;;;;;6.17;3.27;;;13.80;99.90;;;;;;5030519;28;20655;-88
2023/06/02 00:39:01;;;;;;;6.73;3.80;;;13.80;99.90;;;;;;5049004;28;20407;-88
2023/06/02 00:41:27;;;;;;;3.43;2.97;;;13.90;99.90;;;;;;5048345;28;20665;-88
2023/06/02 00:43:53;;;;;;;7.07;2.97;;;14.10;99.90;;;;;;5043691;28;20539;-88
2023/06/02 00:46:18;;;;;;;4.20;2.30;;;13.70;99.90;;;;;;5031324;28;20446;-88
2023/06/02 00:48:46;;;;;;;5.37;3.33;;;13.70;99.90;;;;;;5051472;28;20185;-86
2023/06/02 00:51:12;;;;;;;4.95;3.00;;;13.70;99.90;;;;;;5048954;28;20292;-88
2023/06/02 00:53:38;;;;;;;4.60;2.10;;;13.60;99.90;;;;;;5047282;28;20268;-88
2023/06/02 00:56:04;;;;;;;5.80;3.67;;;13.60;99.90;;;;;;5040858;28;20181;-88
2023/06/02 00:58:30;;;;;;;5.47;2.70;;;;;;;;;;5050896;28;20264;-88
2023/06/02 01:00:56;;;;;;;7.32;2.80;;;13.50;99.90;;;;;;5049543;28;20220;-88
2023/06/02 01:03:24;;;;;;;4.87;3.20;;;13.50;99.90;;;;;;5040588;28;20211;-88
2023/06/02 01:05:53;;;;;;;4.55;2.70;;;13.50;99.90;;;;;;5045061;28;20185;-86
2023/06/02 01:08:19;;;;;;;5.20;3.50;;;15.00;99.90;;;;;;5050058;28;20311;-89
2023/06/02 01:10:45;;;;;;;6.65;3.38;;;;;;;;;;5032466;28;20202;-88
2023/06/02 01:13:11;;;;;;;4.00;2.87;;;13.40;99.90;;;;;;5039014;28;20227;-88
2023/06/02 01:15:37;;;;;;;4.87;3.00;;;13.40;99.90;;;;;;5027693;28;20772;-89
2023/06/02 01:18:08;;;;;;;4.90;3.07;;;13.30;99.90;;;;;;5046982;28;20416;-88
2023/06/02 01:20:40;;;;;;;2.95;2.60;;;13.20;99.90;;;;;;5019276;28;20232;-88
2023/06/02 01:23:18;;;;;;;4.35;2.35;;;13.10;99.90;;;;;;5043981;28;20189;-88
2023/06/02 01:25:44;;;;;;;7.10;3.58;;;13.10;99.90;;;;;;5045408;28;20184;-87
2023/06/02 01:28:10;;;;;;;3.78;3.25;;;12.90;99.90;;;;;;5052059;28;20192;-88
2023/06/02 01:30:36;;;;;;;7.07;3.70;;;12.90;99.90;;;;;;5053676;28;20231;-88
2023/06/02 01:33:20;;;;;;;7.05;3.28;;;12.90;99.90;;;;;;5036264;28;20212;-86
2023/06/02 01:35:48;;;;;;;4.80;3.05;;;12.90;99.90;;;;;;5052845;28;20177;-88
2023/06/02 01:38:17;;;;;;;7.20;3.45;;;12.90;99.90;;;;;;5035396;28;20181;-88
2023/06/02 01:40:43;;;;;;;7.22;3.03;;;12.80;99.90;;;;;;5035337;28;20244;-88
2023/06/02 01:43:10;;;;;;;3.67;2.90;;;12.80;99.90;;;;;;5054888;28;20188;-88
2023/06/02 01:45:37;;;;;;;4.72;3.08;;;12.70;99.90;;;;;;5052708;28;20245;-87
2023/06/02 01:48:04;;;;;;;4.32;2.85;;;12.60;99.90;;;;;;5055105;28;20684;-88
2023/06/02 01:50:31;;;;;;;6.55;3.25;;;12.50;99.90;;;;;;5034819;28;20219;-89
2023/06/02 01:52:57;;;;;;;4.80;3.03;;;12.60;99.90;;;;;;5054761;28;20185;-87
2023/06/02 01:55:23;;;;;;;4.47;2.67;;;12.60;99.90;;;;;;5050589;28;20192;-87
2023/06/02 01:57:49;;;;;;;7.60;3.33;;;12.50;99.90;;;;;;5051615;28;20188;-88
2023/06/02 02:00:15;;;;;;;6.55;2.78;;;12.50;99.90;;;;;;5034444;28;20215;-87
2023/06/02 02:02:41;;;;;;;7.47;3.60;;;12.50;99.90;;;;;;5052886;28;20181;-86
2023/06/02 02:05:07;;;;;;;5.50;3.37;;;12.40;99.90;;;;;;5026873;28;20432;-88
2023/06/02 02:07:34;;;;;;;3.90;3.07;;;12.40;99.90;;;;;;5053423;28;20219;-87
2023/06/02 02:10:00;;;;;;;7.22;3.50;;;12.40;99.90;;;;;;5035627;28;20224;-88
2023/06/02 02:12:25;;;;;;;5.20;3.07;;;12.30;99.90;;;;;;5025482;28;20236;-88
2023/06/02 02:14:53;;;;;;;4.97;3.00;;;12.40;99.90;;;;;;5034352;28;20415;-88
2023/06/02 02:17:19;;;;;;;5.45;2.95;;;12.30;99.90;;;;;;5035643;28;20242;-87
2023/06/02 02:19:50;;;;;;;5.70;3.10;;;12.30;99.90;;;;;;5052706;28;20197;-88
2023/06/02 02:22:16;;;;;;;6.22;3.20;;;12.20;99.90;;;;;;5051503;28;20434;-87
2023/06/02 02:24:41;;;;;;;3.87;2.93;;;12.20;99.90;;;;;;5043292;28;20185;-88
2023/06/02 02:27:08;;;;;;;5.57;2.87;;;12.20;99.90;;;;;;5054684;28;20457;-87
2023/06/02 02:29:36;;;;;;;5.63;2.83;;;12.10;99.90;;;;;;5053947;28;20240;-87
2023/06/02 02:32:01;;;;;;;4.85;3.20;;;12.10;99.90;;;;;;5042390;28;20201;-88
2023/06/02 02:34:28;;;;;;;7.50;2.90;;;12.10;99.90;;;;;;5034863;28;20185;-86
2023/06/02 02:36:58;;;;;;;7.10;3.17;;;12.00;99.90;;;;;;5048026;28;20176;-87
2023/06/02 02:39:24;;;;;;;4.72;2.83;;;;;;;;;;5033759;28;20212;-87
2023/06/02 02:41:50;;;;;;;6.57;3.60;;;11.90;99.90;;;;;;5052710;28;20185;-86
2023/06/02 02:44:15;;;;;;;6.40;3.20;;;11.80;99.90;;;;;;5051572;28;20177;-88
2023/06/02 02:46:41;;;;;;;6.47;3.50;;;11.90;99.90;;;;;;5052537;28;20697;-87
2023/06/02 02:49:08;;;;;;;5.00;3.30;;;11.90;99.90;;;;;;5035146;28;20192;-87
2023/06/02 02:51:33;;;;;;;7.70;4.18;;;11.80;99.90;;;;;;5052225;28;20292;-87
2023/06/02 02:53:59;;;;;;;8.23;3.40;;;;;;;;;;5049652;28;20483;-87
2023/06/02 02:56:27;;;;;;;7.40;3.07;;;11.90;99.90;;;;;;5050886;28;20533;-87
2023/06/02 02:58:52;;;;;;;4.85;3.17;;;11.90;99.90;;;;;;5054055;28;21182;-87
2023/06/02 03:01:18;;;;;;;4.30;3.30;;;;;;;;;;5052423;28;20212;-88
2023/06/02 03:03:44;;;;;;;6.17;3.70;;;11.80;99.90;;;;;;5053085;28;20200;-87
2023/06/02 03:06:13;;;;;;;5.63;3.05;;;11.70;99.90;;;;;;5049039;28;20435;-88
2023/06/02 03:08:39;;;;;;;6.60;3.85;;;11.70;99.90;;;;;;5052826;28;20552;-87
2023/06/02 03:11:05;;;;;;;3.63;3.20;;;11.60;99.90;;;;;;5051913;28;20196;-88
2023/06/02 03:13:30;;;;;;;5.93;3.00;;;11.60;99.90;;;;;;5044245;28;20205;-87
2023/06/02 03:15:56;;;;;;;4.87;3.67;;;11.60;99.90;;;;;;5025998;28;20424;-87
2023/06/02 03:18:21;;;;;;;6.83;4.03;;;11.50;99.90;;;;;;5030326;28;20178;-86
2023/06/02 03:20:48;;;;;;;7.37;3.50;;;11.60;99.90;;;;;;5036569;28;20193;-88
2023/06/02 03:23:14;;;;;;;14.10;4.75;;;11.60;99.90;;;;;;5050429;28;20226;-88
2023/06/02 03:25:40;;;;;;;6.90;4.07;;;11.70;99.90;;;;;;5037729;28;20280;-88
2023/06/02 03:28:06;;;;;;;8.05;3.60;;;11.70;99.90;;;;;;5049760;28;20713;-87
2023/06/02 03:30:31;;;;;;;7.60;4.37;;;11.70;99.90;;;;;;5048628;28;20347;-86
2023/06/02 03:32:57;;;;;;;7.70;4.10;;;11.60;99.90;;;;;;5048767;28;20196;-86
2023/06/02 03:35:23;;;;;;;6.17;4.00;;;;;;;;;;5046257;28;20197;-87
2023/06/02 03:37:48;;;;;;;6.67;4.13;;;11.70;99.90;;;;;;5031996;28;20182;-87
2023/06/02 03:40:14;;;;;;;10.90;3.93;;;11.70;99.90;;;;;;5049763;28;20501;-87
2023/06/02 03:42:40;;;;;;;7.87;4.33;;;;;;;;;;5050388;28;20689;-88
2023/06/02 03:45:06;;;;;;;9.50;4.43;;;11.70;99.90;;;;;;5047564;28;20184;-87
2023/06/02 03:47:31;;;;;;;8.80;4.85;;;11.80;99.90;;;;;;5025665;28;20427;-87
2023/06/02 03:49:57;;;;;;;6.30;3.57;;;11.80;99.90;;;;;;5023995;28;20209;-87
2023/06/02 03:52:24;;;;;;;11.80;5.47;;;;;;;;;;5051988;28;20235;-87
2023/06/02 03:54:50;;;;;;;6.72;3.95;;;11.90;99.90;;;;;;5044148;28;20212;-86
2023/06/02 03:57:15;;;;;;;7.07;4.38;;;12.00;99.90;;;;;;5049715;28;20177;-87
2023/06/02 03:59:41;;;;;;;10.90;5.23;;;12.10;99.90;;;;;;5049958;28;20209;-87
2023/06/02 04:02:07;;;;;;;9.80;4.87;;;12.20;99.90;;;;;;5022003;28;20290;-87
2023/06/02 04:04:33;;;;;;;7.07;3.97;;;;;;;;;;5049774;28;20184;-87
2023/06/02 04:06:58;;;;;;;8.60;5.40;;;12.30;99.90;;;;;;5045720;28;20195;-87
2023/06/02 04:09:24;;;;;;;7.43;4.83;;;12.40;99.90;;;;;;5025047;28;20448;-87
2023/06/02 04:11:50;;;;;;;8.17;4.60;;;;;;;;;;5033443;28;20523;-87
2023/06/02 04:14:15;;;;;;;8.13;4.10;;;12.30;99.90;;;;;;5050392;28;20181;-88
2023/06/02 04:16:41;;;;;;;9.90;4.90;;;12.60;99.90;;;;;;5033631;28;21452;-87
2023/06/02 04:19:07;;;;;;;7.10;4.00;;;;;;;;;;5036531;28;20191;-88
2023/06/02 04:21:32;;;;;;;9.30;4.25;;;14.70;99.90;;;;;;5028355;28;20180;-88
2023/06/02 04:23:58;;;;;;;11.53;4.80;;;15.70;99.90;;;;;;5044304;28;20215;-87
2023/06/02 04:26:23;;;;;;;8.63;5.20;;;16.80;99.90;;;;;;5049547;28;20191;-88
2023/06/02 04:28:49;;;;;;;8.57;4.40;;;17.90;99.90;;;;;;5050924;28;20287;-87
2023/06/02 04:31:26;;;;;;;6.97;4.53;;;18.50;99.90;;;;;;5041373;28;20204;-88
2023/06/02 04:33:58;;;;;;;11.17;5.00;;;18.70;99.90;;;;;;5050320;28;21199;-87
2023/06/02 04:36:23;;;;;;;9.07;4.80;;;19.40;99.90;;;;;;5031424;28;20435;-88
2023/06/02 04:38:49;;;;;;;7.90;4.80;;;19.50;99.90;;;;;;5033001;28;20428;-87
2023/06/02 04:41:14;;;;;;;10.30;5.20;;;20.10;99.90;;;;;;5032198;28;20196;-87
2023/06/02 04:43:42;;;;;;;8.90;5.53;;;;;;;;;;5032542;28;20173;-87
2023/06/02 04:46:07;;;;;;;6.47;3.83;;;22.00;99.90;;;;;;5042113;28;20477;-88
2023/06/02 04:48:33;;;;;;;11.53;5.40;;;22.20;99.90;;;;;;5050247;28;20432;-88
2023/06/02 04:50:58;;;;;;;9.77;5.03;;;22.80;99.60;;;;;;5028724;28;20209;-88
2023/06/02 04:53:24;;;;;;;8.97;5.00;;;22.70;97.30;;;;;;5029696;28;20201;-88
2023/06/02 04:55:49;;;;;;;10.53;4.60;;;22.40;97.00;;;;;;5031986;28;20598;-88
2023/06/02 04:58:15;;;;;;;6.10;3.40;;;;;;;;;;5036683;28;20172;-88
2023/06/02 05:00:41;;;;;;;11.13;4.73;;;21.30;96.90;;;;;;5036766;28;20200;-86
2023/06/02 05:03:06;;;;;;;5.87;3.93;;;21.10;97.90;;;;;;5027096;28;20446;-88
2023/06/02 05:05:32;;;;;;;7.53;4.40;;;21.70;99.20;;;;;;5049334;28;20193;-88
2023/06/02 05:07:57;;;;;;;7.17;4.27;;;20.50;99.00;;;;;;5052357;28;20780;-87
2023/06/02 05:10:23;;;;;;;5.50;3.67;;;20.60;99.50;;;;;;5050355;28;20962;-86
2023/06/02 05:12:49;;;;;;;7.00;4.43;;;20.80;98.50;;;;;;5045766;28;20209;-88
2023/06/02 05:15:16;;;;;;;8.63;5.50;;;20.70;98.70;;;;;;5043713;28;20169;-87
2023/06/02 05:17:43;;;;;;;8.47;4.60;;;20.90;98.90;;;;;;5033925;28;20514;-87
2023/06/02 05:20:09;;;;;;;9.57;4.10;;;22.50;97.30;;;;;;5044836;28;20443;-88
2023/06/02 05:22:35;;;;;;;9.00;4.57;;;22.80;94.80;;;;;;5036994;28;20415;-88
2023/06/02 05:25:02;;;;;;;6.30;4.40;;;23.40;92.80;;;;;;5048787;28;20427;-87
2023/06/02 05:27:28;;;;;;;5.43;4.10;;;;;;;;;;5033110;28;20634;-87
2023/06/02 05:29:53;;;;;;;6.00;4.83;;;24.50;92.20;;;;;;5046797;28;20454;-87
2023/06/02 05:32:22;;;;;;;9.20;4.83;;;;;;;;;;5048512;28;20466;-87
2023/06/02 05:34:48;;;;;;;7.43;4.20;;;;;;;;;;5049157;28;20630;-88
2023/06/02 05:37:14;;;;;;;7.83;4.40;;;;;;;;;;5049992;28;20485;-88
2023/06/02 05:39:41;;;;;;;6.43;4.70;;;;;;;;;;5047703;28;20447;-88
2023/06/02 05:42:07;;;;;;;6.13;4.30;;;25.70;80.50;;;;;;5046771;28;20493;-88
2023/06/02 05:44:33;;;;;;;5.33;3.30;;;26.70;78.20;;;;;;5048774;28;20435;-88
2023/06/02 05:46:58;;;;;;;6.33;4.10;;;26.20;74.50;;;;;;5032779;28;20669;-87
2023/06/02 05:49:24;;;;;;;7.23;4.50;;;;;;;;;;5043411;28;20224;-88
2023/06/02 05:51:50;;;;;;;7.70;4.47;;;;;;;;;;5045091;28;20259;-87
2023/06/02 05:54:16;;;;;;;5.13;4.20;;;;;;;;;;5027915;28;21141;-87
2023/06/02 05:56:42;;;;;;;6.40;4.50;;;;;;;;;;5037510;28;20423;-87
2023/06/02 05:59:08;;;;;;;6.10;4.90;;;28.90;64.20;;;;;;5048197;28;20431;-88
2023/06/02 06:01:35;;;;;;;7.73;4.67;;;;;;;;;;5036981;28;20875;-88
2023/06/02 06:04:00;;;;;;;7.00;3.83;;;29.20;62.80;;;;;;5049173;28;20502;-86
2023/06/02 06:06:27;;;;;;;5.60;4.37;;;;;;;;;;5031055;28;20481;-87
2023/06/02 06:08:53;;;;;;;5.30;4.47;;;;;;;;;;5034576;28;20177;-87
2023/06/02 06:11:19;;;;;;;5.03;4.33;;;27.90;59.40;;;;;;5046299;28;20440;-87
2023/06/02 06:13:44;;;;;;;5.90;4.67;;;27.10;61.00;;;;;;5031167;28;20620;-87
2023/06/02 06:16:10;;;;;;;8.00;5.37;;;25.10;65.10;;;;;;5033934;28;20411;-87
2023/06/02 06:18:36;;;;;;;7.03;5.07;;;23.20;69.20;;;;;;5052320;28;20181;-88
2023/06/02 06:21:02;;;;;;;6.07;4.77;;;22.20;74.40;;;;;;5049970;28;20497;-86
2023/06/02 06:23:28;;;;;;;5.30;4.67;;;24.30;71.70;;;;;;5023003;28;20188;-86
2023/06/02 06:25:54;;;;;;;6.10;4.57;;;24.30;72.40;;;;;;5025882;28;20205;-87
2023/06/02 06:28:20;;;;;;;6.40;4.40;;;;;;;;;;5032917;28;20459;-87
2023/06/02 06:30:46;;;;;;;5.97;4.30;;;;;;;;;;5048362;28;20213;-87
2023/06/02 06:33:12;;;;;;;5.97;4.77;;;;;;;;;;5031797;28;20459;-87
2023/06/02 06:35:38;;;;;;;6.10;4.80;;;;;;;;;;5049357;28;20436;-87
2023/06/02 06:38:04;;;;;;;6.97;5.50;;;;;;;;;;5052008;28;20413;-88
2023/06/02 06:40:31;;;;;;;5.50;4.60;;;29.30;58.80;;;;;;5051830;28;20731;-86
2023/06/02 06:42:57;;;;;;;6.10;3.87;;;;;;;;;;5051657;28;20525;-87
2023/06/02 06:45:23;;;;;;;6.97;5.03;;;;;;;;;;5040276;28;20528;-86
2023/06/02 06:47:50;;;;;;;5.10;4.33;;;;;;;;;;5051202;28;21010;-87
2023/06/02 06:50:16;;;;;;;5.63;3.90;;;;;;;;;;5046460;28;20450;-86
2023/06/02 06:52:42;;;;;;;6.33;4.57;;;26.80;60.00;;;;;;5053502;28;20472;-87
2023/06/02 06:55:08;;;;;;;5.47;4.90;;;27.80;59.60;;;;;;5062889;28;20938;-86
2023/06/02 06:57:34;;;;;;;4.97;4.40;;;30.40;59.60;;;;;;5056534;28;20439;-85
2023/06/02 07:00:00;;;;;;;4.30;3.80;;;;;;;;;;5055240;28;20216;-88
2023/06/02 07:02:25;;;;;;;5.40;4.37;;;;;;;;;;5052784;28;20205;-87
2023/06/02 07:04:51;;;;;;;7.77;4.73;;;;;;;;;;5053200;28;20443;-85
2023/06/02 07:07:17;;;;;;;4.40;4.00;;;;;;;;;;5053539;28;20419;-88
2023/06/02 07:09:43;;;;;;;6.40;4.90;;;;;;;;;;5046874;28;20450;-87
2023/06/02 07:12:09;;;;;;;6.50;4.70;;;;;;;;;;5039821;28;21026;-88
2023/06/02 07:14:35;;;;;;;7.10;4.87;;;;;;;;;;5050925;28;20789;-87
2023/06/02 07:17:01;;;;;;;6.50;5.33;;;;;;;;;;5050041;28;20501;-87
2023/06/02 07:19:27;;;;;;;6.30;5.10;;;;;;;;;;5052373;28;20453;-87
2023/06/02 07:21:53;;;;;;;5.30;4.80;;;;;;;;;;5043964;28;21034;-86
2023/06/02 07:24:20;;;;;;;8.63;6.40;;;;;;;;;;5046946;28;20447;-87
2023/06/02 07:26:46;;;;;;;7.37;6.10;;;;;;;;;;5050844;28;20441;-88
2023/06/02 07:29:12;;;;;;;6.33;5.50;;;;;;;;;;5049933;28;20502;-88
2023/06/02 07:31:38;;;;;;;6.60;5.33;;;;;;;;;;5055780;28;20523;-88
2023/06/02 07:34:03;;;;;;;6.90;6.20;;;;;;;;;;5045469;28;20811;-87
2023/06/02 07:36:29;;;;;;;5.83;5.10;;;;;;;;;;5049847;28;20497;-87
2023/06/02 07:38:55;;;;;;;6.33;5.43;;;;;;;;;;5050775;28;21365;-87
2023/06/02 07:41:21;;;;;;;5.67;5.07;;;;;;;;;;5052166;28;20426;-89
2023/06/02 07:43:47;;;;;;;6.07;5.47;;;;;;;;;;5034285;28;20479;-89
2023/06/02 07:46:13;;;;;;;5.13;4.60;;;;;;;;;;5050394;28;20431;-89
2023/06/02 07:48:40;;;;;;;6.80;5.70;;;31.30;47.70;;;;;;5045411;28;20435;-88
2023/06/02 07:51:06;;;;;;;6.70;6.10;;;31.60;48.00;;;;;;5029041;28;20477;-88
2023/06/02 07:53:32;;;;;;;5.90;4.97;;;;;;;;;;5045422;28;20465;-88
2023/06/02 07:55:58;;;;;;;5.87;4.90;;;;;;;;;;5046822;28;20430;-87
2023/06/02 07:58:24;;;;;;;5.20;4.70;;;;;;;;;;5045953;28;21118;-88
2023/06/02 08:00:50;;;;;;;8.73;5.90;;;;;;;;;;5047662;28;20439;-85
2023/06/02 08:03:15;;;;;;;6.57;5.87;;;32.70;48.90;;;;;;5047126;28;20428;-86
2023/06/02 08:05:43;;;;;;;6.07;5.43;;;;;;;;;;5028204;28;20480;-84
2023/06/02 08:08:09;;;;;;;5.93;5.33;;;31.00;46.60;;;;;;5046433;28;20185;-85
2023/06/02 08:10:35;;;;;;;6.20;5.47;;;;;;;;;;5029186;28;20463;-81
2023/06/02 08:13:01;;;;;;;11.23;5.93;;;;;;;;;;5046668;28;20491;-85
2023/06/02 08:15:26;;;;;;;6.67;5.97;;;28.90;53.60;;;;;;5045146;28;20476;-84
2023/06/02 08:17:52;;;;;;;7.00;5.97;;;29.00;50.60;;;;;;5035222;28;20708;-84
2023/06/02 08:20:17;;;;;;;7.27;5.90;;;29.60;52.00;;;;;;5028408;28;20192;-88
2023/06/02 08:22:47;;;;;;;6.03;5.53;;;;;;;;;;5024129;28;20194;-87
2023/06/02 08:25:14;;;;;;;7.67;6.67;;;;;;;;;;5029061;28;20199;-88
2023/06/02 08:27:48;;;;;;;6.07;5.47;;;30.40;48.30;;;;;;5044564;28;20443;-89
2023/06/02 08:30:14;;;;;;;6.57;5.90;;;;;;;;;;5027306;28;20568;-88
2023/06/02 08:32:40;;;;;;;7.60;6.10;;;;;;;;;;5043607;28;20538;-89
2023/06/02 08:35:07;;;;;;;5.80;5.23;;;;;;;;;;5041530;28;20794;-89
2023/06/02 08:37:33;;;;;;;8.00;6.00;;;;;;;;;;5041351;28;21360;-87
2023/06/02 08:39:59;;;;;;;6.40;5.80;;;;;;;;;;5027084;28;20450;-88
2023/06/02 08:42:28;;;;;;;6.50;5.77;;;31.60;46.40;;;;;;5026771;28;20430;-89
2023/06/02 08:44:54;;;;;;;6.90;6.20;;;;;;;;;;5027958;28;20537;-89
2023/06/02 08:47:24;;;;;;;10.57;5.33;;;31.30;52.00;;;;;;5045598;28;20499;-89
2023/06/02 08:49:50;;;;;;;6.27;5.67;;;;;;;;;;5045165;28;20448;-89
2023/06/02 08:52:23;;;;;;;8.50;6.87;;;32.60;47.50;;;;;;5026957;28;21003;-89
2023/06/02 08:54:50;;;;;;;7.23;5.70;;;30.70;45.20;;;;;;5049583;28;20416;-89
2023/06/02 08:57:16;;;;;;;8.17;5.73;;;;;;;;;;5045754;28;20483;-88
2023/06/02 08:59:46;;;;;;;7.10;6.03;;;29.30;49.40;;;;;;5038182;28;21016;-89
2023/06/02 09:02:12;;;;;;;6.53;5.87;;;;;;;;;;5045775;28;20441;-88
2023/06/02 09:04:38;;;;;;;8.40;6.60;;;;;;;;;;5042672;28;20443;-88
2023/06/02 09:07:12;;;;;;;7.40;6.40;;;30.70;48.40;;;;;;5046381;28;20417;-88
2023/06/02 09:09:46;;;;;;;9.33;6.33;;;30.70;48.90;;;;;;5029642;28;20450;-89
2023/06/02 09:12:14;;;;;;;7.10;6.40;;;;;;;;;;5043675;28;20797;-90
2023/06/02 09:14:40;;;;;;;7.40;6.33;;;;;;;;;;5044847;28;20881;-88
2023/06/02 09:17:35;;;;;;;7.70;5.50;;;29.00;49.60;;;;;;5032619;28;20404;-88
2023/06/02 09:20:07;;;;;;;6.67;6.07;;;;;;;;;;5006190;28;20512;-89
2023/06/02 09:22:33;;;;;;;7.60;5.83;;;28.50;50.50;;;;;;5040709;28;20479;-89
2023/06/02 09:24:59;;;;;;;7.63;6.50;;;;;;;;;;5021649;28;20432;-88
2023/06/02 09:27:25;;;;;;;7.50;6.23;;;;;;;;;;5028749;28;20433;-88
2023/06/02 09:30:00;;;;;;;6.90;6.20;;;27.50;52.20;;;;;;5045742;28;20456;-89
2023/06/02 09:32:26;;;;;;;6.00;5.40;;;;;;;;;;5042976;28;20457;-88
2023/06/02 09:34:52;;;;;;;6.67;6.00;;;;;;;;;;5050333;28;20469;-88
2023/06/02 09:37:19;;;;;;;7.20;5.93;;;;;;;;;;5048398;28;20441;-88
2023/06/02 09:39:56;;;;;;;6.80;6.20;;;29.40;51.10;;;;;;5044476;28;20534;-89
2023/06/02 09:42:22;;;;;;;6.70;5.20;;;;;;;;;;5029061;28;20443;-88
2023/06/02 09:45:05;;;;;;;5.30;4.80;;;29.50;49.60;;;;;;5044816;28;20490;-89
2023/06/02 09:47:37;;;;;;;6.20;5.60;;;29.10;48.60;;;;;;5027908;28;20428;-89
2023/06/02 09:50:03;;;;;;;8.57;5.10;;;;;;;;;;5046989;28;20518;-90
2023/06/02 09:52:29;;;;;;;6.07;5.47;;;;;;;;;;5047673;28;20471;-89
2023/06/02 09:54:55;;;;;;;6.13;5.53;;;;;;;;;;5046294;28;20563;-89
2023/06/02 09:57:21;;;;;;;8.43;6.47;;;;;;;;;;5042430;28;20486;-89
2023/06/02 09:59:47;;;;;;;6.20;5.60;;;;;;;;;;5043353;28;20461;-89
2023/06/02 10:02:13;;;;;;;7.10;6.40;;;;;;;;;;5030032;28;20417;-89
2023/06/02 10:04:39;;;;;;;7.53;5.80;;;;;;;;;;5029679;28;20439;-89
2023/06/02 10:07:26;;;;;;;5.90;5.40;;;31.80;44.90;;;;;;5044670;28;20504;-89
2023/06/02 10:10:10;;;;;;;6.80;6.20;;;30.50;48.40;;;;;;5048645;28;20478;-88
2023/06/02 10:13:07;;;;;;;6.67;6.07;;;29.80;48.20;;;;;;5046121;28;20469;-88
2023/06/02 10:15:46;;;;;;;5.90;5.40;;;29.60;48.60;;;;;;5020042;28;20444;-89
2023/06/02 10:18:36;;;;;;;6.30;5.70;;;29.40;49.70;;;;;;5047440;28;20672;-91
2023/06/02 10:21:24;;;;;;;6.70;6.00;;;30.20;48.70;;;;;;5046863;28;20440;-89
2023/06/02 10:24:23;;;;;;;6.70;5.53;;;30.50;46.20;;;;;;5049657;28;20418;-89
2023/06/02 10:27:02;;;;;;;7.33;6.63;;;30.50;47.00;;;;;;5049799;28;20668;-90
2023/06/02 10:29:29;;;;;;;6.13;5.33;;;29.40;48.70;;;;;;5048340;28;20462;-88
2023/06/02 10:31:55;;;;;;;7.37;5.67;;;29.40;49.20;;;;;;5023700;28;20491;-89
2023/06/02 10:34:40;;;;;;;5.67;5.00;;;28.10;50.40;;;;;;5031616;28;21024;-88
2023/06/02 10:37:06;;;;;;;6.80;4.90;;;26.00;54.40;;;;;;5050901;28;20440;-89
2023/06/02 10:39:40;;;;;;;7.77;5.67;;;25.50;55.00;;;;;;5036378;28;20444;-88
2023/06/02 10:42:07;;;;;;;5.40;4.87;;;24.80;58.00;;;;;;5037523;28;20247;-89
2023/06/02 10:44:33;;;;;;;6.67;5.13;;;;;;;;;;5034942;28;20805;-89
2023/06/02 10:47:17;;;;;;;6.70;5.80;;;24.00;58.10;;;;;;5053637;28;20438;-89
2023/06/02 10:50:00;;;;;;;5.33;4.70;;;23.90;59.80;;;;;;5049720;28;20485;-89
2023/06/02 10:52:31;;;;;;;4.93;4.03;;;23.70;58.90;;;;;;5050252;28;20459;-89
2023/06/02 10:55:08;;;;;;;6.03;4.40;;;23.30;59.30;;;;;;5047979;28;20420;-88
2023/06/02 10:57:56;;;;;;;5.10;3.90;;;23.00;57.60;;;;;;5050446;28;20431;-89
2023/06/02 11:00:39;;;;;;;5.60;4.73;;;23.00;57.80;;;;;;5034154;28;20460;-88
2023/06/02 11:03:11;;;;;;;6.17;5.13;;;22.90;58.40;;;;;;5048417;28;20542;-88
2023/06/02 11:05:36;;;;;;;6.83;4.53;;;23.20;60.00;;;;;;5045979;28;20442;-88
2023/06/02 11:08:11;;;;;;;5.37;4.30;;;23.10;61.30;;;;;;5047046;28;20428;-88
2023/06/02 11:10:56;;;;;;;4.93;3.47;;;22.90;62.20;;;;;;5046952;28;20211;-89
2023/06/02 11:13:23;;;;;;;6.93;5.10;;;23.00;61.20;;;;;;5047484;28;21013;-89
2023/06/02 11:15:51;;;;;;;4.90;4.23;;;23.30;60.30;;;;;;5028472;28;20431;-88
2023/06/02 11:18:25;;;;;;;5.53;4.20;;;23.60;62.60;;;;;;5045312;28;20436;-88
2023/06/02 11:20:53;;;;;;;7.10;4.40;;;23.80;59.20;;;;;;5047409;28;20479;-90
2023/06/02 11:23:20;;;;;;;6.57;4.13;;;;;;;;;;5045754;28;20431;-89
2023/06/02 11:25:46;;;;;;;6.20;3.80;;;;;;;;;;5046254;28;20463;-88
2023/06/02 11:28:21;;;;;;;7.80;3.60;;;22.90;59.50;;;;;;5049348;28;20542;-88
2023/06/02 11:30:47;;;;;;;7.63;4.20;;;22.80;60.10;;;;;;5044420;28;20469;-88
2023/06/02 11:33:13;;;;;;;8.23;4.90;;;;;;;;;;5046979;28;20456;-87
2023/06/02 11:35:46;;;;;;;5.30;3.30;;;;;;;;;;5046872;28;20438;-88
2023/06/02 11:38:16;;;;;;;4.53;4.10;;;23.10;58.70;;;;;;5045535;28;20428;-89
2023/06/02 11:40:42;;;;;;;4.60;3.47;;;23.30;58.80;;;;;;5047099;28;20455;-88
2023/06/02 11:43:07;;;;;;;4.60;3.87;;;23.30;59.30;;;;;;5047923;28;20427;-88
2023/06/02 11:45:34;;;;;;;6.17;4.20;;;;;;;;;;5045583;28;20188;-89
2023/06/02 11:48:08;;;;;;;8.30;4.27;;;;;;;;;;5033587;28;20180;-88
2023/06/02 11:50:35;;;;;;;3.97;3.60;;;22.90;59.90;;;;;;5045741;28;20451;-89
2023/06/02 11:53:01;;;;;;;4.47;3.77;;;;;;;;;;5029170;28;20455;-88
2023/06/02 11:55:31;;;;;;;5.60;3.50;;;22.60;63.50;;;;;;5043800;28;20966;-89
2023/06/02 11:58:17;;;;;;;4.73;4.23;;;23.10;61.90;;;;;;5047507;28;20448;-89
2023/06/02 12:00:42;;;;;;;6.00;4.13;;;23.20;61.90;;;;;;5024363;28;20526;-88
2023/06/02 12:03:08;;;;;;;6.70;4.13;;;22.80;60.80;;;;;;5047024;28;21034;-88
2023/06/02 12:05:34;;;;;;;5.80;3.90;;;22.80;63.30;;;;;;5044867;28;20181;-89
2023/06/02 12:08:14;;;;;;;5.27;3.60;;;22.80;64.10;;;;;;5047470;28;20189;-87
2023/06/02 12:10:41;;;;;;;13.10;4.10;;;22.90;63.20;;;;;;5045711;28;20472;-88
2023/06/02 12:13:07;;;;;;;4.90;4.00;;;;;;;;;;5070186;28;20486;-87
2023/06/02 12:15:33;;;;;;;5.47;3.50;;;;;;;;;;5049035;28;20495;-88
2023/06/02 12:18:04;;;;;;;10.93;3.70;;;23.30;61.70;;;;;;5045971;28;20432;-87
2023/06/02 12:20:39;;;;;;;3.97;3.20;;;23.30;62.40;;;;;;5042595;28;20979;-89
2023/06/02 12:23:05;;;;;;;4.43;3.20;;;;;;;;;;5025316;28;20958;-87
2023/06/02 12:25:32;;;;;;;5.23;3.33;;;23.10;59.80;;;;;;5046254;28;20434;-88
2023/06/02 12:28:13;;;;;;;4.60;4.17;;;23.10;60.40;;;;;;5047041;28;20439;-89
2023/06/02 12:30:40;;;;;;;3.83;3.47;;;23.20;60.30;;;;;;5045314;28;20455;-88
2023/06/02 12:33:07;;;;;;;5.03;4.17;;;23.00;59.90;;;;;;5036968;28;20455;-88
2023/06/02 12:35:32;;;;;;;4.50;3.60;;;23.10;61.70;;;;;;5021008;28;20427;-88
2023/06/02 12:37:58;;;;;;;4.20;3.80;;;;;;;;;;5030435;28;20509;-88
2023/06/02 12:40:24;;;;;;;4.80;3.40;;;23.40;57.10;;;;;;5046196;28;20207;-89
2023/06/02 12:42:50;;;;;;;4.77;3.33;;;;;;;;;;5047293;28;20427;-88
2023/06/02 12:45:16;;;;;;;3.40;3.10;;;;;;;;;;5028533;28;20547;-89
2023/06/02 12:47:42;;;;;;;3.80;3.40;;;23.80;58.80;;;;;;5046312;28;20436;-89
2023/06/02 12:50:08;;;;;;;4.27;3.87;;;23.80;59.30;;;;;;5046831;28;20558;-88
2023/06/02 12:52:34;;;;;;;3.83;3.53;;;23.50;58.90;;;;;;5045410;28;20462;-88
2023/06/02 12:55:00;;;;;;;3.87;2.90;;;;;;;;;;5046352;28;20420;-88
2023/06/02 12:57:26;;;;;;;5.43;3.23;;;;;;;;;;5046396;28;20416;-89
2023/06/02 12:59:52;;;;;;;4.23;3.83;;;;;;;;;;5039916;28;20451;-88
2023/06/02 13:02:19;;;;;;;3.63;3.03;;;;;;;;;;5046755;28;20507;-89
2023/06/02 13:04:45;;;;;;;6.63;3.43;;;;;;;;;;5045502;28;20431;-87
2023/06/02 13:07:11;;;;;;;4.57;3.57;;;;;;;;;;5032928;28;20437;-88
2023/06/02 13:09:37;;;;;;;4.83;3.63;;;;;;;;;;5045669;28;20483;-89
2023/06/02 13:12:04;;;;;;;4.07;3.67;;;;;;;;;;5048023;28;20495;-89
2023/06/02 13:14:30;;;;;;;5.87;4.00;;;;;;;;;;5065041;28;20439;-90
2023/06/02 13:16:56;;;;;;;5.00;3.50;;;;;;;;;;5033771;28;20565;-87
2023/06/02 13:19:22;;;;;;;3.70;2.90;;;24.20;60.30;;;;;;5043804;28;20530;-88
2023/06/02 13:21:48;;;;;;;4.67;4.17;;;24.30;57.30;;;;;;5038635;28;20485;-87
2023/06/02 13:24:16;;;;;;;3.90;2.97;;;;;;;;;;5052413;28;20454;-88
2023/06/02 13:26:42;;;;;;;3.37;3.07;;;;;;;;;;5054910;28;20415;-88
2023/06/02 13:29:08;;;;;;;6.20;4.10;;;;;;;;;;5052299;28;20805;-87